sensor_id;sensor_type;location;lat;lon;timestamp;P1;durP1;ratioP1;P2;durP2;ratioP2
27402;SDS011;14862;49.494;8.530;2023-11-21T00:01:24;11.38;;;3.55;;
27402;SDS011;14862;49.494;8.530;2023-11-21T00:03:49;9.48;;;3.60;;
27402;SDS011;14862;49.494;8.530;2023-11-21T00:06:15;11.38;;;3.28;;
27402;SDS011;14862;49.494;8.530;2023-11-21T00:08:40;8.65;;;3.20;;
27402;SDS011;14862;49.494;8.530;2023-11-21T00:11:05;9.70;;;4.00;;
27402;SDS011;14862;49.494;8.530;2023-11-21T00:13:31;11.52;;;4.65;;
27402;SDS011;14862;49.494;8.530;2023-11-21T00:15:56;14.68;;;5.82;;
27402;SDS011;14862;49.494;8.530;2023-11-21T00:18:21;10.17;;;3.70;;
27402;SDS011;14862;49.494;8.530;2023-11-21T00:20:47;7.00;;;3.50;;
27402;SDS011;14862;49.494;8.530;2023-11-21T00:23:12;8.35;;;3.00;;
27402;SDS011;14862;49.494;8.530;2023-11-21T00:25:37;7.93;;;2.27;;
27402;SDS011;14862;49.494;8.530;2023-11-21T00:28:02;5.57;;;2.70;;
27402;SDS011;14862;49.494;8.530;2023-11-21T00:30:28;9.10;;;2.47;;
27402;SDS011;14862;49.494;8.530;2023-11-21T00:32:54;10.35;;;2.65;;
27402;SDS011;14862;49.494;8.530;2023-11-21T00:35:19;10.85;;;3.13;;
27402;SDS011;14862;49.494;8.530;2023-11-21T00:37:45;7.72;;;2.70;;
27402;SDS011;14862;49.494;8.530;2023-11-21T00:40:10;9.52;;;2.70;;
27402;SDS011;14862;49.494;8.530;2023-11-21T00:42:35;6.10;;;2.20;;
27402;SDS011;14862;49.494;8.530;2023-11-21T00:45:01;6.20;;;2.40;;
27402;SDS011;14862;49.494;8.530;2023-11-21T00:47:27;5.75;;;2.50;;
27402;SDS011;14862;49.494;8.530;2023-11-21T00:49:52;6.28;;;2.25;;
27402;SDS011;14862;49.494;8.530;2023-11-21T00:52:18;7.82;;;2.42;;
27402;SDS011;14862;49.494;8.530;2023-11-21T00:54:43;9.55;;;2.63;;
27402;SDS011;14862;49.494;8.530;2023-11-21T00:57:08;8.60;;;2.00;;
27402;SDS011;14862;49.494;8.530;2023-11-21T00:59:33;5.63;;;2.13;;
27402;SDS011;14862;49.494;8.530;2023-11-21T01:01:59;8.77;;;2.38;;
27402;SDS011;14862;49.494;8.530;2023-11-21T01:04:26;6.10;;;2.30;;
27402;SDS011;14862;49.494;8.530;2023-11-21T01:06:51;8.05;;;2.80;;
27402;SDS011;14862;49.494;8.530;2023-11-21T01:09:16;7.05;;;2.60;;
27402;SDS011;14862;49.494;8.530;2023-11-21T01:11:43;6.18;;;3.03;;
27402;SDS011;14862;49.494;8.530;2023-11-21T01:14:08;8.60;;;2.40;;
27402;SDS011;14862;49.494;8.530;2023-11-21T01:16:34;5.75;;;2.60;;
27402;SDS011;14862;49.494;8.530;2023-11-21T01:18:59;9.13;;;2.65;;
27402;SDS011;14862;49.494;8.530;2023-11-21T01:21:24;5.07;;;2.33;;
27402;SDS011;14862;49.494;8.530;2023-11-21T01:23:50;5.32;;;2.78;;
27402;SDS011;14862;49.494;8.530;2023-11-21T01:26:15;6.75;;;1.98;;
27402;SDS011;14862;49.494;8.530;2023-11-21T01:28:40;11.37;;;2.53;;
27402;SDS011;14862;49.494;8.530;2023-11-21T01:31:05;5.90;;;2.65;;
27402;SDS011;14862;49.494;8.530;2023-11-21T01:33:32;6.55;;;2.50;;
27402;SDS011;14862;49.494;8.530;2023-11-21T01:35:57;8.85;;;2.17;;
27402;SDS011;14862;49.494;8.530;2023-11-21T01:38:22;7.20;;;2.47;;
27402;SDS011;14862;49.494;8.530;2023-11-21T01:40:48;5.53;;;2.20;;
27402;SDS011;14862;49.494;8.530;2023-11-21T01:43:13;6.45;;;2.45;;
27402;SDS011;14862;49.494;8.530;2023-11-21T01:45:38;6.35;;;2.78;;
27402;SDS011;14862;49.494;8.530;2023-11-21T01:48:04;4.55;;;2.17;;
27402;SDS011;14862;49.494;8.530;2023-11-21T01:50:31;6.90;;;2.50;;
27402;SDS011;14862;49.494;8.530;2023-11-21T01:52:57;10.68;;;2.40;;
27402;SDS011;14862;49.494;8.530;2023-11-21T01:55:22;8.32;;;2.60;;
27402;SDS011;14862;49.494;8.530;2023-11-21T01:57:47;7.85;;;2.85;;
27402;SDS011;14862;49.494;8.530;2023-11-21T02:00:13;7.88;;;3.58;;
27402;SDS011;14862;49.494;8.530;2023-11-21T02:02:42;6.60;;;3.13;;
27402;SDS011;14862;49.494;8.530;2023-11-21T02:05:07;5.57;;;3.13;;
27402;SDS011;14862;49.494;8.530;2023-11-21T02:07:33;8.30;;;2.92;;
27402;SDS011;14862;49.494;8.530;2023-11-21T02:09:59;7.57;;;2.88;;
27402;SDS011;14862;49.494;8.530;2023-11-21T02:12:24;5.97;;;2.93;;
27402;SDS011;14862;49.494;8.530;2023-11-21T02:14:51;4.82;;;2.33;;
27402;SDS011;14862;49.494;8.530;2023-11-21T02:17:16;4.50;;;2.50;;
27402;SDS011;14862;49.494;8.530;2023-11-21T02:19:43;6.05;;;2.67;;
27402;SDS011;14862;49.494;8.530;2023-11-21T02:22:08;13.32;;;2.90;;
27402;SDS011;14862;49.494;8.530;2023-11-21T02:24:33;5.30;;;1.98;;
27402;SDS011;14862;49.494;8.530;2023-11-21T02:26:58;7.43;;;1.98;;
27402;SDS011;14862;49.494;8.530;2023-11-21T02:29:24;5.90;;;2.22;;
27402;SDS011;14862;49.494;8.530;2023-11-21T02:31:53;3.83;;;1.90;;
27402;SDS011;14862;49.494;8.530;2023-11-21T02:34:19;5.40;;;2.22;;
27402;SDS011;14862;49.494;8.530;2023-11-21T02:36:45;5.43;;;2.80;;
27402;SDS011;14862;49.494;8.530;2023-11-21T02:39:10;4.38;;;1.92;;
27402;SDS011;14862;49.494;8.530;2023-11-21T02:41:39;5.43;;;1.95;;
27402;SDS011;14862;49.494;8.530;2023-11-21T02:44:07;5.32;;;1.98;;
27402;SDS011;14862;49.494;8.530;2023-11-21T02:46:33;6.68;;;1.83;;
27402;SDS011;14862;49.494;8.530;2023-11-21T02:49:02;5.22;;;2.28;;
27402;SDS011;14862;49.494;8.530;2023-11-21T02:51:28;5.20;;;1.92;;
27402;SDS011;14862;49.494;8.530;2023-11-21T02:53:54;4.45;;;1.90;;
27402;SDS011;14862;49.494;8.530;2023-11-21T02:56:19;7.07;;;2.13;;
27402;SDS011;14862;49.494;8.530;2023-11-21T02:58:45;4.68;;;2.00;;
27402;SDS011;14862;49.494;8.530;2023-11-21T03:01:10;4.32;;;1.98;;
27402;SDS011;14862;49.494;8.530;2023-11-21T03:03:36;3.67;;;1.75;;
27402;SDS011;14862;49.494;8.530;2023-11-21T03:06:04;3.40;;;1.90;;
27402;SDS011;14862;49.494;8.530;2023-11-21T03:08:29;6.45;;;2.70;;
27402;SDS011;14862;49.494;8.530;2023-11-21T03:10:54;5.97;;;2.10;;
27402;SDS011;14862;49.494;8.530;2023-11-21T03:13:19;4.80;;;2.10;;
27402;SDS011;14862;49.494;8.530;2023-11-21T03:15:45;6.13;;;1.77;;
27402;SDS011;14862;49.494;8.530;2023-11-21T03:18:10;5.17;;;2.13;;
27402;SDS011;14862;49.494;8.530;2023-11-21T03:20:35;3.50;;;1.73;;
27402;SDS011;14862;49.494;8.530;2023-11-21T03:23:01;4.53;;;2.05;;
27402;SDS011;14862;49.494;8.530;2023-11-21T03:25:27;5.47;;;2.70;;
27402;SDS011;14862;49.494;8.530;2023-11-21T03:27:53;5.50;;;2.10;;
27402;SDS011;14862;49.494;8.530;2023-11-21T03:30:18;3.65;;;1.67;;
27402;SDS011;14862;49.494;8.530;2023-11-21T03:32:43;5.03;;;2.00;;
27402;SDS011;14862;49.494;8.530;2023-11-21T03:35:08;6.45;;;2.10;;
27402;SDS011;14862;49.494;8.530;2023-11-21T03:37:34;5.47;;;2.00;;
27402;SDS011;14862;49.494;8.530;2023-11-21T03:40:00;4.45;;;2.10;;
27402;SDS011;14862;49.494;8.530;2023-11-21T03:42:25;2.58;;;1.65;;
27402;SDS011;14862;49.494;8.530;2023-11-21T03:44:51;4.82;;;1.70;;
27402;SDS011;14862;49.494;8.530;2023-11-21T03:47:16;5.15;;;1.92;;
27402;SDS011;14862;49.494;8.530;2023-11-21T03:49:42;8.98;;;1.90;;
27402;SDS011;14862;49.494;8.530;2023-11-21T03:52:07;2.77;;;1.77;;
27402;SDS011;14862;49.494;8.530;2023-11-21T03:54:32;4.43;;;2.35;;
27402;SDS011;14862;49.494;8.530;2023-11-21T03:56:58;5.35;;;2.13;;
27402;SDS011;14862;49.494;8.530;2023-11-21T03:59:23;3.22;;;1.73;;
27402;SDS011;14862;49.494;8.530;2023-11-21T04:01:49;3.15;;;1.77;;
27402;SDS011;14862;49.494;8.530;2023-11-21T04:04:14;3.78;;;1.95;;
27402;SDS011;14862;49.494;8.530;2023-11-21T04:06:40;5.47;;;1.87;;
27402;SDS011;14862;49.494;8.530;2023-11-21T04:09:06;4.28;;;1.83;;
27402;SDS011;14862;49.494;8.530;2023-11-21T04:11:31;5.13;;;1.88;;
27402;SDS011;14862;49.494;8.530;2023-11-21T04:13:56;6.10;;;2.33;;
27402;SDS011;14862;49.494;8.530;2023-11-21T04:16:21;5.03;;;1.90;;
27402;SDS011;14862;49.494;8.530;2023-11-21T04:18:47;3.70;;;1.88;;
27402;SDS011;14862;49.494;8.530;2023-11-21T04:21:12;4.57;;;1.83;;
27402;SDS011;14862;49.494;8.530;2023-11-21T04:23:37;4.00;;;1.70;;
27402;SDS011;14862;49.494;8.530;2023-11-21T04:26:02;4.18;;;2.03;;
27402;SDS011;14862;49.494;8.530;2023-11-21T04:28:28;3.38;;;2.05;;
27402;SDS011;14862;49.494;8.530;2023-11-21T04:30:53;4.20;;;1.90;;
27402;SDS011;14862;49.494;8.530;2023-11-21T04:33:18;4.90;;;2.28;;
27402;SDS011;14862;49.494;8.530;2023-11-21T04:35:44;6.20;;;2.15;;
27402;SDS011;14862;49.494;8.530;2023-11-21T04:38:09;5.72;;;2.00;;
27402;SDS011;14862;49.494;8.530;2023-11-21T04:40:34;4.37;;;1.60;;
27402;SDS011;14862;49.494;8.530;2023-11-21T04:43:00;5.07;;;2.85;;
27402;SDS011;14862;49.494;8.530;2023-11-21T04:45:25;4.20;;;2.13;;
27402;SDS011;14862;49.494;8.530;2023-11-21T04:47:50;5.20;;;2.20;;
27402;SDS011;14862;49.494;8.530;2023-11-21T04:50:15;4.97;;;1.85;;
27402;SDS011;14862;49.494;8.530;2023-11-21T04:52:41;4.38;;;2.05;;
27402;SDS011;14862;49.494;8.530;2023-11-21T04:55:06;5.47;;;2.30;;
27402;SDS011;14862;49.494;8.530;2023-11-21T04:57:35;5.53;;;2.15;;
27402;SDS011;14862;49.494;8.530;2023-11-21T05:00:00;5.97;;;2.35;;
27402;SDS011;14862;49.494;8.530;2023-11-21T05:02:25;5.13;;;2.40;;
27402;SDS011;14862;49.494;8.530;2023-11-21T05:04:50;6.40;;;2.33;;
27402;SDS011;14862;49.494;8.530;2023-11-21T05:07:15;6.90;;;2.47;;
27402;SDS011;14862;49.494;8.530;2023-11-21T05:09:44;4.25;;;2.20;;
27402;SDS011;14862;49.494;8.530;2023-11-21T05:12:10;2.30;;;1.92;;
27402;SDS011;14862;49.494;8.530;2023-11-21T05:14:36;3.58;;;2.28;;
27402;SDS011;14862;49.494;8.530;2023-11-21T05:17:01;3.45;;;2.10;;
27402;SDS011;14862;49.494;8.530;2023-11-21T05:19:26;4.13;;;2.20;;
27402;SDS011;14862;49.494;8.530;2023-11-21T05:21:52;7.68;;;2.47;;
27402;SDS011;14862;49.494;8.530;2023-11-21T05:24:17;3.70;;;2.10;;
27402;SDS011;14862;49.494;8.530;2023-11-21T05:26:42;6.07;;;2.38;;
27402;SDS011;14862;49.494;8.530;2023-11-21T05:29:07;4.70;;;2.50;;
27402;SDS011;14862;49.494;8.530;2023-11-21T05:31:34;4.70;;;2.10;;
27402;SDS011;14862;49.494;8.530;2023-11-21T05:33:59;4.57;;;2.40;;
27402;SDS011;14862;49.494;8.530;2023-11-21T05:36:24;5.10;;;2.70;;
27402;SDS011;14862;49.494;8.530;2023-11-21T05:38:49;4.32;;;2.13;;
27402;SDS011;14862;49.494;8.530;2023-11-21T05:41:15;6.20;;;2.42;;
27402;SDS011;14862;49.494;8.530;2023-11-21T05:43:40;3.50;;;2.10;;
27402;SDS011;14862;49.494;8.530;2023-11-21T05:46:05;3.58;;;1.90;;
27402;SDS011;14862;49.494;8.530;2023-11-21T05:48:32;5.40;;;2.72;;
27402;SDS011;14862;49.494;8.530;2023-11-21T05:50:57;6.05;;;2.65;;
27402;SDS011;14862;49.494;8.530;2023-11-21T05:53:24;4.22;;;3.05;;
27402;SDS011;14862;49.494;8.530;2023-11-21T05:55:49;4.75;;;3.80;;
27402;SDS011;14862;49.494;8.530;2023-11-21T05:58:14;5.67;;;4.00;;
27402;SDS011;14862;49.494;8.530;2023-11-21T06:00:39;7.35;;;3.75;;
27402;SDS011;14862;49.494;8.530;2023-11-21T06:03:05;7.57;;;3.65;;
27402;SDS011;14862;49.494;8.530;2023-11-21T06:05:32;5.30;;;4.28;;
27402;SDS011;14862;49.494;8.530;2023-11-21T06:07:58;7.13;;;5.32;;
27402;SDS011;14862;49.494;8.530;2023-11-21T06:10:24;12.18;;;5.63;;
27402;SDS011;14862;49.494;8.530;2023-11-21T06:12:49;7.35;;;4.68;;
27402;SDS011;14862;49.494;8.530;2023-11-21T06:15:14;8.82;;;5.20;;
27402;SDS011;14862;49.494;8.530;2023-11-21T06:17:40;6.38;;;5.25;;
27402;SDS011;14862;49.494;8.530;2023-11-21T06:20:07;8.43;;;5.97;;
27402;SDS011;14862;49.494;8.530;2023-11-21T06:22:36;12.13;;;6.13;;
27402;SDS011;14862;49.494;8.530;2023-11-21T06:25:02;6.63;;;5.28;;
27402;SDS011;14862;49.494;8.530;2023-11-21T06:27:29;9.88;;;6.45;;
27402;SDS011;14862;49.494;8.530;2023-11-21T06:29:54;9.60;;;6.40;;
27402;SDS011;14862;49.494;8.530;2023-11-21T06:32:20;11.23;;;7.35;;
27402;SDS011;14862;49.494;8.530;2023-11-21T06:34:47;8.13;;;6.97;;
27402;SDS011;14862;49.494;8.530;2023-11-21T06:37:12;12.40;;;7.93;;
27402;SDS011;14862;49.494;8.530;2023-11-21T06:39:38;10.23;;;7.65;;
27402;SDS011;14862;49.494;8.530;2023-11-21T06:42:03;14.38;;;7.53;;
27402;SDS011;14862;49.494;8.530;2023-11-21T06:44:29;12.38;;;7.85;;
27402;SDS011;14862;49.494;8.530;2023-11-21T06:46:54;12.73;;;8.40;;
27402;SDS011;14862;49.494;8.530;2023-11-21T06:49:19;11.38;;;8.45;;
27402;SDS011;14862;49.494;8.530;2023-11-21T06:51:45;11.65;;;7.93;;
27402;SDS011;14862;49.494;8.530;2023-11-21T06:54:10;11.75;;;8.85;;
27402;SDS011;14862;49.494;8.530;2023-11-21T06:56:35;15.65;;;9.55;;
27402;SDS011;14862;49.494;8.530;2023-11-21T06:59:01;12.95;;;8.52;;
27402;SDS011;14862;49.494;8.530;2023-11-21T07:01:26;16.50;;;10.10;;
27402;SDS011;14862;49.494;8.530;2023-11-21T07:03:51;13.80;;;8.68;;
27402;SDS011;14862;49.494;8.530;2023-11-21T07:06:16;13.65;;;8.45;;
27402;SDS011;14862;49.494;8.530;2023-11-21T07:08:42;11.98;;;8.48;;
27402;SDS011;14862;49.494;8.530;2023-11-21T07:11:07;14.18;;;8.82;;
27402;SDS011;14862;49.494;8.530;2023-11-21T07:13:32;12.63;;;9.30;;
27402;SDS011;14862;49.494;8.530;2023-11-21T07:15:58;10.13;;;8.25;;
27402;SDS011;14862;49.494;8.530;2023-11-21T07:18:24;11.90;;;9.00;;
27402;SDS011;14862;49.494;8.530;2023-11-21T07:20:49;12.52;;;8.70;;
27402;SDS011;14862;49.494;8.530;2023-11-21T07:23:14;15.60;;;8.87;;
27402;SDS011;14862;49.494;8.530;2023-11-21T07:25:40;12.65;;;8.85;;
27402;SDS011;14862;49.494;8.530;2023-11-21T07:28:06;9.55;;;7.75;;
27402;SDS011;14862;49.494;8.530;2023-11-21T07:30:32;10.30;;;8.30;;
27402;SDS011;14862;49.494;8.530;2023-11-21T07:32:57;9.05;;;7.93;;
27402;SDS011;14862;49.494;8.530;2023-11-21T07:35:22;11.98;;;7.45;;
27402;SDS011;14862;49.494;8.530;2023-11-21T07:37:48;9.40;;;7.07;;
27402;SDS011;14862;49.494;8.530;2023-11-21T07:40:14;9.75;;;7.10;;
27402;SDS011;14862;49.494;8.530;2023-11-21T07:42:39;8.70;;;6.72;;
27402;SDS011;14862;49.494;8.530;2023-11-21T07:45:04;9.07;;;6.43;;
27402;SDS011;14862;49.494;8.530;2023-11-21T07:47:30;8.15;;;6.47;;
27402;SDS011;14862;49.494;8.530;2023-11-21T07:49:55;7.38;;;6.38;;
27402;SDS011;14862;49.494;8.530;2023-11-21T07:52:23;9.40;;;6.30;;
27402;SDS011;14862;49.494;8.530;2023-11-21T07:54:49;8.27;;;6.72;;
27402;SDS011;14862;49.494;8.530;2023-11-21T07:57:14;7.20;;;5.77;;
27402;SDS011;14862;49.494;8.530;2023-11-21T07:59:40;7.97;;;6.05;;
27402;SDS011;14862;49.494;8.530;2023-11-21T08:02:06;5.45;;;4.63;;
27402;SDS011;14862;49.494;8.530;2023-11-21T08:04:31;5.60;;;4.68;;
27402;SDS011;14862;49.494;8.530;2023-11-21T08:06:57;5.07;;;4.57;;
27402;SDS011;14862;49.494;8.530;2023-11-21T08:09:22;5.55;;;4.90;;
27402;SDS011;14862;49.494;8.530;2023-11-21T08:11:49;5.78;;;5.13;;
27402;SDS011;14862;49.494;8.530;2023-11-21T08:14:14;7.05;;;5.25;;
27402;SDS011;14862;49.494;8.530;2023-11-21T08:16:40;6.25;;;5.65;;
27402;SDS011;14862;49.494;8.530;2023-11-21T08:19:05;5.97;;;4.40;;
27402;SDS011;14862;49.494;8.530;2023-11-21T08:21:31;4.80;;;4.40;;
27402;SDS011;14862;49.494;8.530;2023-11-21T08:23:56;5.03;;;4.55;;
27402;SDS011;14862;49.494;8.530;2023-11-21T08:26:21;6.80;;;4.70;;
27402;SDS011;14862;49.494;8.530;2023-11-21T08:28:47;4.82;;;4.30;;
27402;SDS011;14862;49.494;8.530;2023-11-21T08:31:13;5.00;;;4.47;;
27402;SDS011;14862;49.494;8.530;2023-11-21T08:33:38;4.70;;;4.30;;
27402;SDS011;14862;49.494;8.530;2023-11-21T08:36:06;5.53;;;4.25;;
27402;SDS011;14862;49.494;8.530;2023-11-21T08:38:32;5.15;;;4.03;;
27402;SDS011;14862;49.494;8.530;2023-11-21T08:40:57;6.35;;;4.45;;
27402;SDS011;14862;49.494;8.530;2023-11-21T08:43:22;4.90;;;4.10;;
27402;SDS011;14862;49.494;8.530;2023-11-21T08:45:47;5.43;;;4.07;;
27402;SDS011;14862;49.494;8.530;2023-11-21T08:48:13;4.47;;;4.07;;
27402;SDS011;14862;49.494;8.530;2023-11-21T08:50:38;5.78;;;3.92;;
27402;SDS011;14862;49.494;8.530;2023-11-21T08:53:03;5.10;;;3.60;;
27402;SDS011;14862;49.494;8.530;2023-11-21T08:55:28;3.83;;;3.30;;
27402;SDS011;14862;49.494;8.530;2023-11-21T08:57:54;3.63;;;3.22;;
27402;SDS011;14862;49.494;8.530;2023-11-21T09:00:19;2.90;;;2.50;;
27402;SDS011;14862;49.494;8.530;2023-11-21T09:02:44;3.58;;;2.13;;
27402;SDS011;14862;49.494;8.530;2023-11-21T09:05:13;2.95;;;2.00;;
27402;SDS011;14862;49.494;8.530;2023-11-21T09:07:39;1.55;;;1.45;;
27402;SDS011;14862;49.494;8.530;2023-11-21T09:10:06;1.55;;;1.10;;
27402;SDS011;14862;49.494;8.530;2023-11-21T09:12:33;4.18;;;1.10;;
27402;SDS011;14862;49.494;8.530;2023-11-21T09:14:58;0.95;;;0.77;;
27402;SDS011;14862;49.494;8.530;2023-11-21T09:17:23;1.10;;;1.10;;
27402;SDS011;14862;49.494;8.530;2023-11-21T09:19:49;2.55;;;1.10;;
27402;SDS011;14862;49.494;8.530;2023-11-21T09:22:17;5.03;;;1.20;;
27402;SDS011;14862;49.494;8.530;2023-11-21T09:24:42;2.17;;;1.60;;
27402;SDS011;14862;49.494;8.530;2023-11-21T09:27:08;1.63;;;1.52;;
27402;SDS011;14862;49.494;8.530;2023-11-21T09:29:34;2.05;;;1.73;;
27402;SDS011;14862;49.494;8.530;2023-11-21T09:31:59;2.28;;;1.70;;
27402;SDS011;14862;49.494;8.530;2023-11-21T09:34:26;2.72;;;1.85;;
27402;SDS011;14862;49.494;8.530;2023-11-21T09:36:51;2.42;;;2.22;;
27402;SDS011;14862;49.494;8.530;2023-11-21T09:39:16;4.50;;;2.40;;
27402;SDS011;14862;49.494;8.530;2023-11-21T09:44:09;3.40;;;3.05;;
27402;SDS011;14862;49.494;8.530;2023-11-21T09:46:37;6.50;;;3.30;;
27402;SDS011;14862;49.494;8.530;2023-11-21T09:49:04;4.07;;;3.67;;
27402;SDS011;14862;49.494;8.530;2023-11-21T09:51:33;4.43;;;3.80;;
27402;SDS011;14862;49.494;8.530;2023-11-21T09:54:03;5.10;;;4.07;;
27402;SDS011;14862;49.494;8.530;2023-11-21T09:56:32;5.07;;;4.25;;
27402;SDS011;14862;49.494;8.530;2023-11-21T09:58:57;5.45;;;4.18;;
27402;SDS011;14862;49.494;8.530;2023-11-21T10:01:23;4.38;;;3.92;;
27402;SDS011;14862;49.494;8.530;2023-11-21T10:03:50;5.18;;;4.07;;
27402;SDS011;14862;49.494;8.530;2023-11-21T10:06:15;5.13;;;4.63;;
27402;SDS011;14862;49.494;8.530;2023-11-21T10:08:42;5.68;;;4.68;;
27402;SDS011;14862;49.494;8.530;2023-11-21T10:11:07;7.13;;;5.78;;
27402;SDS011;14862;49.494;8.530;2023-11-21T10:13:36;7.30;;;5.80;;
27402;SDS011;14862;49.494;8.530;2023-11-21T10:16:02;11.20;;;6.13;;
27402;SDS011;14862;49.494;8.530;2023-11-21T10:18:30;6.68;;;5.85;;
27402;SDS011;14862;49.494;8.530;2023-11-21T10:20:59;8.55;;;7.03;;
27402;SDS011;14862;49.494;8.530;2023-11-21T10:23:24;8.50;;;6.82;;
27402;SDS011;14862;49.494;8.530;2023-11-21T10:25:52;8.85;;;7.95;;
27402;SDS011;14862;49.494;8.530;2023-11-21T10:28:18;9.88;;;7.25;;
27402;SDS011;14862;49.494;8.530;2023-11-21T10:30:44;8.90;;;7.13;;
27402;SDS011;14862;49.494;8.530;2023-11-21T10:33:09;11.40;;;8.33;;
27402;SDS011;14862;49.494;8.530;2023-11-21T10:35:45;11.10;;;8.35;;
27402;SDS011;14862;49.494;8.530;2023-11-21T10:38:22;13.27;;;8.60;;
27402;SDS011;14862;49.494;8.530;2023-11-21T10:40:49;10.00;;;7.22;;
27402;SDS011;14862;49.494;8.530;2023-11-21T10:43:14;14.50;;;8.77;;
27402;SDS011;14862;49.494;8.530;2023-11-21T10:45:40;10.80;;;7.55;;
27402;SDS011;14862;49.494;8.530;2023-11-21T10:48:06;9.93;;;7.18;;
27402;SDS011;14862;49.494;8.530;2023-11-21T10:50:35;11.32;;;7.38;;
27402;SDS011;14862;49.494;8.530;2023-11-21T10:53:01;10.30;;;7.22;;
27402;SDS011;14862;49.494;8.530;2023-11-21T10:55:27;9.25;;;6.63;;
27402;SDS011;14862;49.494;8.530;2023-11-21T10:57:53;7.70;;;6.22;;
27402;SDS011;14862;49.494;8.530;2023-11-21T11:00:19;8.15;;;6.35;;
27402;SDS011;14862;49.494;8.530;2023-11-21T11:02:56;9.15;;;5.65;;
27402;SDS011;14862;49.494;8.530;2023-11-21T11:05:25;8.73;;;6.18;;
27402;SDS011;14862;49.494;8.530;2023-11-21T11:07:56;8.57;;;6.57;;
27402;SDS011;14862;49.494;8.530;2023-11-21T11:12:51;7.93;;;6.18;;
27402;SDS011;14862;49.494;8.530;2023-11-21T11:15:17;8.32;;;6.18;;
27402;SDS011;14862;49.494;8.530;2023-11-21T11:17:42;8.38;;;6.13;;
27402;SDS011;14862;49.494;8.530;2023-11-21T11:20:10;7.93;;;5.75;;
27402;SDS011;14862;49.494;8.530;2023-11-21T11:22:37;8.13;;;6.00;;
27402;SDS011;14862;49.494;8.530;2023-11-21T11:35:26;7.40;;;5.32;;
27402;SDS011;14862;49.494;8.530;2023-11-21T11:37:55;7.35;;;5.13;;
27402;SDS011;14862;49.494;8.530;2023-11-21T11:40:21;7.93;;;5.25;;
27402;SDS011;14862;49.494;8.530;2023-11-21T11:43:00;7.57;;;5.22;;
27402;SDS011;14862;49.494;8.530;2023-11-21T11:45:31;8.02;;;4.57;;
27402;SDS011;14862;49.494;8.530;2023-11-21T11:47:57;9.27;;;4.97;;
27402;SDS011;14862;49.494;8.530;2023-11-21T11:50:22;6.90;;;4.93;;
27402;SDS011;14862;49.494;8.530;2023-11-21T11:52:48;8.73;;;5.55;;
27402;SDS011;14862;49.494;8.530;2023-11-21T11:55:16;8.02;;;5.13;;
27402;SDS011;14862;49.494;8.530;2023-11-21T11:57:45;6.55;;;5.43;;
27402;SDS011;14862;49.494;8.530;2023-11-21T12:02:40;6.20;;;4.78;;
27402;SDS011;14862;49.494;8.530;2023-11-21T12:05:12;10.13;;;4.95;;
27402;SDS011;14862;49.494;8.530;2023-11-21T12:08:02;7.93;;;4.47;;
27402;SDS011;14862;49.494;8.530;2023-11-21T12:10:30;7.20;;;4.32;;
27402;SDS011;14862;49.494;8.530;2023-11-21T12:13:02;6.38;;;4.90;;
27402;SDS011;14862;49.494;8.530;2023-11-21T12:15:28;5.03;;;4.10;;
27402;SDS011;14862;49.494;8.530;2023-11-21T12:17:56;4.57;;;3.97;;
27402;SDS011;14862;49.494;8.530;2023-11-21T12:20:23;5.93;;;4.32;;
27402;SDS011;14862;49.494;8.530;2023-11-21T12:25:14;6.80;;;3.50;;
27402;SDS011;14862;49.494;8.530;2023-11-21T12:27:41;5.57;;;3.35;;
27402;SDS011;14862;49.494;8.530;2023-11-21T12:30:07;5.95;;;3.70;;
27402;SDS011;14862;49.494;8.530;2023-11-21T12:32:38;6.28;;;3.58;;
27402;SDS011;14862;49.494;8.530;2023-11-21T12:35:03;5.30;;;3.08;;
27402;SDS011;14862;49.494;8.530;2023-11-21T12:37:31;7.60;;;3.28;;
27402;SDS011;14862;49.494;8.530;2023-11-21T12:39:56;7.82;;;3.40;;
27402;SDS011;14862;49.494;8.530;2023-11-21T12:42:23;5.72;;;3.58;;
27402;SDS011;14862;49.494;8.530;2023-11-21T12:44:48;4.80;;;2.90;;
27402;SDS011;14862;49.494;8.530;2023-11-21T12:47:16;9.70;;;3.10;;
27402;SDS011;14862;49.494;8.530;2023-11-21T12:49:41;7.35;;;3.75;;
27402;SDS011;14862;49.494;8.530;2023-11-21T12:52:09;5.40;;;3.13;;
27402;SDS011;14862;49.494;8.530;2023-11-21T12:54:34;4.45;;;2.90;;
27402;SDS011;14862;49.494;8.530;2023-11-21T12:57:00;4.82;;;2.65;;
27402;SDS011;14862;49.494;8.530;2023-11-21T12:59:26;5.80;;;2.95;;
27402;SDS011;14862;49.494;8.530;2023-11-21T13:01:53;4.90;;;2.50;;
27402;SDS011;14862;49.494;8.530;2023-11-21T13:04:28;5.93;;;2.85;;
27402;SDS011;14862;49.494;8.530;2023-11-21T13:06:54;8.13;;;3.42;;
27402;SDS011;14862;49.494;8.530;2023-11-21T13:09:20;3.22;;;2.53;;
27402;SDS011;14862;49.494;8.530;2023-11-21T13:11:46;4.90;;;2.63;;
27402;SDS011;14862;49.494;8.530;2023-11-21T13:14:11;3.85;;;2.63;;
27402;SDS011;14862;49.494;8.530;2023-11-21T13:16:37;3.72;;;2.70;;
27402;SDS011;14862;49.494;8.530;2023-11-21T13:19:04;4.40;;;2.72;;
27402;SDS011;14862;49.494;8.530;2023-11-21T13:21:29;5.43;;;3.05;;
27402;SDS011;14862;49.494;8.530;2023-11-21T13:23:54;7.13;;;3.50;;
27402;SDS011;14862;49.494;8.530;2023-11-21T13:26:21;5.07;;;3.13;;
27402;SDS011;14862;49.494;8.530;2023-11-21T13:28:48;7.07;;;3.13;;
27402;SDS011;14862;49.494;8.530;2023-11-21T13:31:13;7.13;;;3.38;;
27402;SDS011;14862;49.494;8.530;2023-11-21T13:33:57;6.43;;;3.40;;
27402;SDS011;14862;49.494;8.530;2023-11-21T13:36:29;8.20;;;3.67;;
27402;SDS011;14862;49.494;8.530;2023-11-21T13:38:58;6.63;;;3.40;;
27402;SDS011;14862;49.494;8.530;2023-11-21T13:41:24;8.10;;;3.28;;
27402;SDS011;14862;49.494;8.530;2023-11-21T13:43:55;6.57;;;3.15;;
27402;SDS011;14862;49.494;8.530;2023-11-21T13:46:28;9.23;;;3.35;;
27402;SDS011;14862;49.494;8.530;2023-11-21T13:48:53;5.32;;;2.50;;
27402;SDS011;14862;49.494;8.530;2023-11-21T13:51:21;7.30;;;3.53;;
27402;SDS011;14862;49.494;8.530;2023-11-21T13:53:54;6.30;;;2.85;;
27402;SDS011;14862;49.494;8.530;2023-11-21T13:56:20;6.28;;;2.70;;
27402;SDS011;14862;49.494;8.530;2023-11-21T13:58:47;7.90;;;3.33;;
27402;SDS011;14862;49.494;8.530;2023-11-21T14:01:16;6.07;;;2.78;;
27402;SDS011;14862;49.494;8.530;2023-11-21T14:04:00;6.47;;;3.47;;
27402;SDS011;14862;49.494;8.530;2023-11-21T14:06:42;6.43;;;2.72;;
27402;SDS011;14862;49.494;8.530;2023-11-21T14:09:13;6.93;;;2.55;;
27402;SDS011;14862;49.494;8.530;2023-11-21T14:11:47;5.28;;;2.47;;
27402;SDS011;14862;49.494;8.530;2023-11-21T14:14:12;7.67;;;3.07;;
27402;SDS011;14862;49.494;8.530;2023-11-21T14:16:37;8.75;;;2.65;;
27402;SDS011;14862;49.494;8.530;2023-11-21T14:19:02;8.97;;;3.00;;
27402;SDS011;14862;49.494;8.530;2023-11-21T14:21:39;4.30;;;2.60;;
27402;SDS011;14862;49.494;8.530;2023-11-21T14:24:04;6.45;;;3.00;;
27402;SDS011;14862;49.494;8.530;2023-11-21T14:26:34;6.25;;;3.00;;
27402;SDS011;14862;49.494;8.530;2023-11-21T14:29:00;5.32;;;3.00;;
27402;SDS011;14862;49.494;8.530;2023-11-21T14:31:25;6.80;;;3.20;;
27402;SDS011;14862;49.494;8.530;2023-11-21T14:33:51;10.02;;;3.40;;
27402;SDS011;14862;49.494;8.530;2023-11-21T14:36:16;7.35;;;3.13;;
27402;SDS011;14862;49.494;8.530;2023-11-21T14:38:42;7.03;;;3.10;;
27402;SDS011;14862;49.494;8.530;2023-11-21T14:41:07;7.55;;;3.10;;
27402;SDS011;14862;49.494;8.530;2023-11-21T14:43:36;5.95;;;3.35;;
27402;SDS011;14862;49.494;8.530;2023-11-21T14:46:03;9.70;;;4.45;;
27402;SDS011;14862;49.494;8.530;2023-11-21T14:48:31;7.47;;;3.20;;
27402;SDS011;14862;49.494;8.530;2023-11-21T14:51:12;11.13;;;3.97;;
27402;SDS011;14862;49.494;8.530;2023-11-21T14:53:37;4.70;;;3.20;;
27402;SDS011;14862;49.494;8.530;2023-11-21T14:56:14;8.48;;;4.20;;
27402;SDS011;14862;49.494;8.530;2023-11-21T15:01:13;10.20;;;3.63;;
27402;SDS011;14862;49.494;8.530;2023-11-21T15:03:38;14.63;;;5.35;;